Gay Hill, Texas
Current Conditions -  °F | °C
As of 3:55 PM on Saturday 25 Oct 2014 (Local Time) from K11R Reporting Station
Clear Clear  
Wind Chill: 86°   Ceiling: Unl
Heat Index: 86°   Visibility: 10mi
Dew Point: 58°   Wind: 0mph
Humidity: 39%   Direction: NA
Pressure: 30.1"   Gusts: NA
Location:  30.2352°N, 96.4076°W
Report Text: K11R 252055Z AUTO 00000KT 10SM CLR 30/15 A3010 RMK AO2 T03010146
Loading
Personal Weather Stations






























Interactive Weather Map
Tropical Storm Tracking
New forecast layout! Learn more

10-Day Weather Forecast

Advertisements
Track Severe Weather on mobile